Time;durP1;ratioP1;P1;durP2;ratioP2;P2;SDS_P1;SDS_P2;PMS_P1;PMS_P2;Temp;Humidity;BMP_temperature;BMP_pressure;BME280_temperature;BME280_humidity;BME280_pressure;Samples;Min_cycle;Max_cycle;Signal;HPM_P1;HPM_P2
2023/10/03 00:00:37;;;;;;;17.25;9.90;;;20.90;99.90;;;;;;5074437;28;20192;-72
2023/10/03 00:03:08;;;;;;;16.83;9.25;;;20.90;99.90;;;;;;5074470;28;20177;-72
2023/10/03 00:05:33;;;;;;;16.73;8.77;;;20.80;99.90;;;;;;5073315;28;20181;-70
2023/10/03 00:08:04;;;;;;;17.67;9.10;;;20.80;99.90;;;;;;5073590;28;20291;-71
2023/10/03 00:10:33;;;;;;;18.05;9.38;;;20.80;99.90;;;;;;5073266;28;20267;-72
2023/10/03 00:13:01;;;;;;;15.27;8.85;;;20.80;99.90;;;;;;5074204;28;20292;-71
2023/10/03 00:15:30;;;;;;;16.98;9.30;;;20.70;99.90;;;;;;5073165;28;20177;-71
2023/10/03 00:17:55;;;;;;;16.55;9.23;;;20.70;99.90;;;;;;5088707;28;20196;-72
2023/10/03 00:20:22;;;;;;;16.80;9.52;;;20.70;99.90;;;;;;5071841;28;20205;-71
2023/10/03 00:22:51;;;;;;;17.23;9.57;;;20.70;99.90;;;;;;5088897;28;20251;-72
2023/10/03 00:25:18;;;;;;;16.15;9.15;;;20.70;99.90;;;;;;5071905;28;20192;-71
2023/10/03 00:27:55;;;;;;;16.90;8.82;;;20.70;99.90;;;;;;5073266;28;20203;-72
2023/10/03 00:30:25;;;;;;;15.57;8.68;;;20.70;99.90;;;;;;5073140;28;20181;-70
2023/10/03 00:32:51;;;;;;;16.67;9.02;;;20.70;99.90;;;;;;5070140;28;20237;-71
2023/10/03 00:35:20;;;;;;;17.52;9.15;;;20.70;99.90;;;;;;5073191;28;20177;-71
2023/10/03 00:37:47;;;;;;;16.05;9.57;;;20.70;99.90;;;;;;5072682;28;20234;-72
2023/10/03 00:40:17;;;;;;;16.30;8.93;;;20.70;99.90;;;;;;5076705;28;20200;-72
2023/10/03 00:42:51;;;;;;;15.07;8.32;;;20.70;99.90;;;;;;5074533;28;20169;-70
2023/10/03 00:45:24;;;;;;;15.13;8.63;;;20.70;99.90;;;;;;5075698;28;20423;-71
2023/10/03 00:47:58;;;;;;;16.30;9.05;;;20.70;99.90;;;;;;5076464;28;20212;-72
2023/10/03 00:50:31;;;;;;;15.85;8.77;;;20.70;99.90;;;;;;5077193;28;20176;-72
2023/10/03 00:53:10;;;;;;;16.92;8.77;;;20.70;99.90;;;;;;5077425;28;20177;-72
2023/10/03 00:55:40;;;;;;;15.27;8.57;;;20.60;99.90;;;;;;5075866;28;20196;-72
2023/10/03 01:00:43;;;;;;;16.13;8.82;;;20.70;99.90;;;;;;5076237;28;20222;-71
2023/10/03 01:03:31;;;;;;;17.77;9.60;;;20.70;99.90;;;;;;5092913;28;20271;-72
2023/10/03 01:06:08;;;;;;;16.48;8.82;;;20.70;99.90;;;;;;5076548;28;20173;-72
2023/10/03 01:08:39;;;;;;;16.05;9.13;;;20.80;99.90;;;;;;5075855;28;20195;-72
2023/10/03 01:11:15;;;;;;;19.00;9.65;;;20.80;99.90;;;;;;5076386;28;20181;-71
2023/10/03 01:13:40;;;;;;;18.48;10.13;;;20.90;99.90;;;;;;5075486;28;20204;-70
2023/10/03 01:16:08;;;;;;;15.52;8.80;;;20.90;99.90;;;;;;5076270;28;20195;-71
2023/10/03 01:18:37;;;;;;;19.42;10.13;;;20.90;99.90;;;;;;5075813;28;20172;-71
2023/10/03 01:21:06;;;;;;;19.00;9.93;;;20.90;99.90;;;;;;5106468;28;20197;-71
2023/10/03 01:23:37;;;;;;;19.98;10.30;;;20.90;99.90;;;;;;5099150;28;20207;-71
2023/10/03 01:26:07;;;;;;;17.70;9.88;;;20.90;99.90;;;;;;5075637;28;20185;-71
2023/10/03 01:28:38;;;;;;;21.08;10.63;;;21.00;99.90;;;;;;5075535;28;20267;-72
2023/10/03 01:31:03;;;;;;;17.83;9.60;;;21.00;99.90;;;;;;5076700;28;20180;-70
2023/10/03 01:33:31;;;;;;;16.88;9.38;;;21.00;99.90;;;;;;5076297;28;20215;-71
2023/10/03 01:35:58;;;;;;;21.95;9.93;;;21.00;99.90;;;;;;5076301;28;20172;-72
2023/10/03 01:38:28;;;;;;;16.80;9.27;;;21.00;99.90;;;;;;5076999;28;20248;-71
2023/10/03 01:41:00;;;;;;;15.60;8.63;;;21.10;99.90;;;;;;5076519;28;20180;-72
2023/10/03 01:43:26;;;;;;;17.25;9.13;;;21.10;99.90;;;;;;5075204;28;20268;-70
2023/10/03 01:45:56;;;;;;;15.60;8.60;;;21.20;99.90;;;;;;5075366;28;20200;-72
2023/10/03 01:48:22;;;;;;;18.50;9.40;;;21.20;99.90;;;;;;5103821;28;20181;-70
2023/10/03 01:50:51;;;;;;;18.27;10.15;;;21.30;99.90;;;;;;5075110;28;20214;-71
2023/10/03 01:53:17;;;;;;;17.02;9.68;;;21.30;99.90;;;;;;5103622;28;20192;-72
2023/10/03 01:55:43;;;;;;;16.08;8.88;;;21.30;99.90;;;;;;5075751;28;20184;-71
2023/10/03 01:58:09;;;;;;;15.80;8.82;;;21.40;99.90;;;;;;5075526;28;20208;-71
2023/10/03 02:00:37;;;;;;;18.13;9.45;;;21.40;99.90;;;;;;5074931;28;20246;-68
2023/10/03 02:03:12;;;;;;;16.35;8.88;;;21.40;99.90;;;;;;5075304;28;20196;-70
2023/10/03 02:05:39;;;;;;;16.83;9.13;;;21.40;99.90;;;;;;5075993;28;20246;-71
2023/10/03 02:08:13;;;;;;;15.40;8.38;;;21.50;99.90;;;;;;5075513;28;20173;-71
2023/10/03 02:10:39;;;;;;;15.15;8.15;;;21.50;99.90;;;;;;5073879;28;20185;-70
2023/10/03 02:13:14;;;;;;;14.68;8.35;;;21.50;99.90;;;;;;5104614;27;20197;-71
2023/10/03 02:15:44;;;;;;;16.88;8.73;;;21.50;99.90;;;;;;5075184;28;20179;-70
2023/10/03 02:18:12;;;;;;;16.08;8.85;;;21.60;99.90;;;;;;5101559;28;20258;-72
2023/10/03 02:20:47;;;;;;;15.70;8.60;;;21.60;99.90;;;;;;5075957;28;20177;-69
2023/10/03 02:23:19;;;;;;;14.30;8.00;;;21.60;99.90;;;;;;5075888;28;20191;-70
2023/10/03 02:25:48;;;;;;;14.95;8.23;;;21.60;99.90;;;;;;5075707;28;20197;-69
2023/10/03 02:28:16;;;;;;;15.93;8.57;;;21.60;99.90;;;;;;5076097;28;20187;-71
2023/10/03 02:30:51;;;;;;;16.88;8.75;;;21.60;99.90;;;;;;5092519;28;20176;-71
2023/10/03 02:33:22;;;;;;;15.27;8.25;;;21.70;99.90;;;;;;5073724;28;20177;-71
2023/10/03 02:35:51;;;;;;;15.18;8.15;;;21.70;99.90;;;;;;5074772;28;20177;-71
2023/10/03 02:38:29;;;;;;;13.98;8.10;;;21.70;99.90;;;;;;5074392;28;20270;-72
2023/10/03 02:41:00;;;;;;;15.20;8.07;;;21.70;99.90;;;;;;5074498;28;20267;-72
2023/10/03 02:43:28;;;;;;;14.15;7.85;;;21.70;99.90;;;;;;5075017;28;20172;-72
2023/10/03 02:45:56;;;;;;;14.48;8.35;;;21.70;99.90;;;;;;5075146;28;20168;-68
2023/10/03 02:48:24;;;;;;;15.90;8.75;;;21.70;99.90;;;;;;5073511;28;20180;-70
2023/10/03 02:50:53;;;;;;;15.82;8.82;;;21.70;99.90;;;;;;5074677;28;20208;-70
2023/10/03 02:53:21;;;;;;;16.00;8.43;;;21.70;99.90;;;;;;5075062;28;20173;-72
2023/10/03 02:55:54;;;;;;;15.15;8.38;;;21.70;99.90;;;;;;5075169;28;20185;-72
2023/10/03 02:58:20;;;;;;;15.30;8.02;;;21.60;99.90;;;;;;5072793;28;20196;-71
2023/10/03 03:00:56;;;;;;;12.85;7.65;;;21.60;99.90;;;;;;5072899;28;20177;-72
2023/10/03 03:03:32;;;;;;;13.52;7.63;;;21.60;99.90;;;;;;5074045;28;20191;-71
2023/10/03 03:06:14;;;;;;;14.68;7.55;;;21.60;99.90;;;;;;5102976;28;20282;-71
2023/10/03 03:08:44;;;;;;;13.25;7.38;;;21.60;99.90;;;;;;5073879;28;20176;-69
2023/10/03 03:11:10;;;;;;;13.70;7.47;;;21.60;99.90;;;;;;5074052;28;20204;-70
2023/10/03 03:13:37;;;;;;;14.05;7.13;;;21.60;99.90;;;;;;5073094;28;20174;-71
2023/10/03 03:16:06;;;;;;;13.10;7.93;;;21.60;99.90;;;;;;5073566;28;20336;-69
2023/10/03 03:18:46;;;;;;;13.00;7.10;;;21.60;99.90;;;;;;5073352;28;20192;-72
2023/10/03 03:21:14;;;;;;;12.38;6.78;;;21.60;99.90;;;;;;5091552;28;20180;-71
2023/10/03 03:23:55;;;;;;;12.98;6.85;;;21.70;99.90;;;;;;5074538;28;20250;-70
2023/10/03 03:26:35;;;;;;;12.02;6.68;;;21.70;99.90;;;;;;5102453;28;20224;-71
2023/10/03 03:29:01;;;;;;;11.45;6.45;;;21.70;99.90;;;;;;5101422;28;20187;-71
2023/10/03 03:31:26;;;;;;;12.43;6.90;;;21.70;99.90;;;;;;5073516;28;20201;-70
2023/10/03 03:33:56;;;;;;;11.57;7.18;;;21.80;99.90;;;;;;5072672;28;20197;-72
2023/10/03 03:36:29;;;;;;;11.60;6.53;;;21.80;99.90;;;;;;5061234;28;20197;-71
2023/10/03 03:38:58;;;;;;;13.98;7.47;;;21.80;99.90;;;;;;5068777;23;20244;-71
2023/10/03 03:41:26;;;;;;;13.35;7.30;;;21.80;99.90;;;;;;5031903;28;20181;-71
2023/10/03 03:43:54;;;;;;;14.55;7.95;;;21.80;99.90;;;;;;5023560;28;20288;-72
2023/10/03 03:46:20;;;;;;;13.32;7.25;;;21.80;99.90;;;;;;5014755;28;20190;-72
2023/10/03 03:48:46;;;;;;;11.93;6.82;;;21.80;99.90;;;;;;5031396;28;20174;-71
2023/10/03 03:51:14;;;;;;;13.68;7.82;;;21.80;99.90;;;;;;5034689;28;20197;-72
2023/10/03 03:53:43;;;;;;;14.10;8.13;;;21.80;99.90;;;;;;5034903;28;20174;-71
2023/10/03 03:56:11;;;;;;;13.27;7.53;;;21.80;99.90;;;;;;5033308;28;20240;-70
2023/10/03 03:58:40;;;;;;;14.20;7.90;;;21.70;99.90;;;;;;5034170;28;20202;-70
2023/10/03 04:01:14;;;;;;;14.52;7.88;;;21.70;99.90;;;;;;5034022;28;20178;-71
2023/10/03 04:03:43;;;;;;;14.05;7.78;;;21.60;99.90;;;;;;5034591;28;20194;-72
2023/10/03 04:06:09;;;;;;;14.77;7.65;;;21.50;99.90;;;;;;5016883;28;20209;-71
2023/10/03 04:08:41;;;;;;;13.77;7.25;;;21.50;99.90;;;;;;5025072;28;20170;-69
2023/10/03 04:11:09;;;;;;;14.93;7.60;;;21.40;99.90;;;;;;5031315;28;20199;-71
2023/10/03 04:13:53;;;;;;;13.85;7.63;;;21.40;99.90;;;;;;5018236;28;20208;-69
2023/10/03 04:16:21;;;;;;;13.63;7.00;;;21.30;99.90;;;;;;5029012;28;20218;-72
2023/10/03 04:18:50;;;;;;;11.45;6.40;;;21.30;99.90;;;;;;5037985;28;20177;-71
2023/10/03 04:21:17;;;;;;;13.73;7.00;;;21.20;99.90;;;;;;5048151;28;20165;-71
2023/10/03 04:23:44;;;;;;;12.90;7.13;;;21.20;99.90;;;;;;5034586;28;20252;-72
2023/10/03 04:26:10;;;;;;;12.63;7.30;;;21.20;99.90;;;;;;5034931;28;20180;-71
2023/10/03 04:28:37;;;;;;;12.23;7.00;;;21.20;99.90;;;;;;5034629;28;20197;-72
2023/10/03 04:31:08;;;;;;;13.18;7.03;;;21.10;99.90;;;;;;5034987;28;20197;-71
2023/10/03 04:33:36;;;;;;;19.98;7.88;;;21.10;99.90;;;;;;5031059;28;20170;-71
2023/10/03 04:36:05;;;;;;;12.57;7.22;;;21.10;99.90;;;;;;5031693;28;20198;-72
2023/10/03 04:38:31;;;;;;;13.43;7.30;;;21.10;99.90;;;;;;5051291;28;20308;-71
2023/10/03 04:40:59;;;;;;;13.13;7.07;;;21.10;99.90;;;;;;5051143;28;20218;-72
2023/10/03 04:43:29;;;;;;;10.88;6.50;;;21.10;99.90;;;;;;5050971;28;20176;-72
2023/10/03 04:45:57;;;;;;;12.55;6.57;;;21.10;99.90;;;;;;5051408;28;20182;-72
2023/10/03 04:48:23;;;;;;;12.45;6.80;;;21.10;99.90;;;;;;5050625;28;20272;-72
2023/10/03 04:50:49;;;;;;;11.57;6.80;;;21.10;99.90;;;;;;5031422;28;20178;-71
2023/10/03 04:53:15;;;;;;;10.90;6.20;;;21.10;99.90;;;;;;5033851;28;20209;-71
2023/10/03 04:55:44;;;;;;;14.02;7.18;;;21.00;99.90;;;;;;5031539;28;20181;-71
2023/10/03 04:58:13;;;;;;;13.40;6.90;;;21.00;99.90;;;;;;5030957;28;20199;-71
2023/10/03 05:00:39;;;;;;;13.40;8.10;;;21.00;99.90;;;;;;5014737;28;20272;-71
2023/10/03 05:03:08;;;;;;;12.35;7.10;;;21.00;99.90;;;;;;5029784;28;20183;-72
2023/10/03 05:05:35;;;;;;;13.70;7.97;;;21.00;99.90;;;;;;5037583;28;20197;-71
2023/10/03 05:08:00;;;;;;;12.70;7.22;;;21.00;99.90;;;;;;5023774;28;20273;-71
2023/10/03 05:10:30;;;;;;;12.88;6.38;;;21.00;99.90;;;;;;5034897;28;20261;-71
2023/10/03 05:12:57;;;;;;;9.88;6.28;;;21.00;99.90;;;;;;5032333;28;20197;-72
2023/10/03 05:15:26;;;;;;;12.95;8.02;;;21.10;99.90;;;;;;5033977;28;20201;-72
2023/10/03 05:17:54;;;;;;;11.48;6.20;;;21.20;99.90;;;;;;5033828;28;20206;-71
2023/10/03 05:20:20;;;;;;;10.60;6.45;;;21.20;99.90;;;;;;5034336;28;20171;-72
2023/10/03 05:22:46;;;;;;;9.15;5.88;;;21.30;99.90;;;;;;5033493;28;20174;-71
2023/10/03 05:25:18;;;;;;;10.60;6.13;;;21.40;99.90;;;;;;5028492;28;20227;-71
2023/10/03 05:27:51;;;;;;;9.45;5.70;;;21.50;99.90;;;;;;5036958;28;20197;-70
2023/10/03 05:30:16;;;;;;;9.15;5.35;;;21.60;99.90;;;;;;5021561;28;20273;-71
2023/10/03 05:32:42;;;;;;;9.00;5.57;;;21.70;99.90;;;;;;5034188;28;20217;-72
2023/10/03 05:35:12;;;;;;;11.02;5.70;;;21.80;99.90;;;;;;5017672;28;20185;-71
2023/10/03 05:37:39;;;;;;;10.57;5.95;;;21.90;99.90;;;;;;5024401;28;20216;-70
2023/10/03 05:40:11;;;;;;;10.00;5.93;;;22.00;99.90;;;;;;5035165;28;20183;-72
2023/10/03 05:42:41;;;;;;;8.90;5.18;;;22.00;99.90;;;;;;5018325;28;20193;-72
2023/10/03 05:45:12;;;;;;;8.73;5.30;;;22.10;99.90;;;;;;5025942;28;20277;-72
2023/10/03 05:47:48;;;;;;;14.07;5.47;;;22.20;99.90;;;;;;5036512;28;20178;-72
2023/10/03 05:50:21;;;;;;;8.85;5.70;;;22.30;99.90;;;;;;5039061;28;20201;-72
2023/10/03 05:52:50;;;;;;;8.27;4.97;;;22.30;99.90;;;;;;5037486;28;20268;-72
2023/10/03 05:55:16;;;;;;;8.80;4.93;;;22.40;99.90;;;;;;5037571;28;20198;-72
2023/10/03 05:57:42;;;;;;;9.90;5.72;;;22.40;99.90;;;;;;5037643;28;20272;-72
2023/10/03 06:00:18;;;;;;;8.27;5.22;;;22.40;99.90;;;;;;5031229;28;20198;-72
2023/10/03 06:02:47;;;;;;;6.97;4.72;;;22.40;99.90;;;;;;5037452;28;20212;-72
2023/10/03 06:05:15;;;;;;;7.53;4.90;;;22.50;99.90;;;;;;5037670;28;20166;-72
2023/10/03 06:07:42;;;;;;;7.30;4.88;;;22.50;99.90;;;;;;5037249;28;20197;-72
2023/10/03 06:10:10;;;;;;;8.50;5.00;;;22.50;99.90;;;;;;5037280;28;20285;-72
2023/10/03 06:12:37;;;;;;;10.77;5.28;;;22.50;99.90;;;;;;5037270;28;20182;-72
2023/10/03 06:15:05;;;;;;;7.22;4.80;;;22.50;99.90;;;;;;5037146;28;20170;-72
2023/10/03 06:17:37;;;;;;;10.25;5.30;;;22.50;99.90;;;;;;5036399;28;20198;-71
2023/10/03 06:20:05;;;;;;;10.25;4.90;;;22.50;99.90;;;;;;5037099;28;20174;-73
2023/10/03 06:22:33;;;;;;;8.43;5.07;;;22.50;99.90;;;;;;5036939;28;20201;-73
2023/10/03 06:25:01;;;;;;;9.30;4.93;;;22.50;99.90;;;;;;5053634;28;20178;-72
2023/10/03 06:27:30;;;;;;;8.68;5.00;;;22.50;99.90;;;;;;5036968;28;20276;-73
2023/10/03 06:29:56;;;;;;;9.82;5.32;;;22.50;99.90;;;;;;5037018;28;20209;-73
2023/10/03 06:32:22;;;;;;;8.65;5.03;;;22.50;99.90;;;;;;5036236;28;20177;-72
2023/10/03 06:34:47;;;;;;;9.18;4.85;;;22.50;99.90;;;;;;5034394;28;20182;-71
2023/10/03 06:37:13;;;;;;;8.88;5.18;;;22.50;99.90;;;;;;5038335;28;20335;-72
2023/10/03 06:39:40;;;;;;;8.30;5.15;;;22.50;99.90;;;;;;5035940;28;20265;-71
2023/10/03 06:42:07;;;;;;;8.55;4.85;;;22.60;99.90;;;;;;5033028;28;20379;-73
2023/10/03 06:44:36;;;;;;;8.38;5.05;;;22.50;99.90;;;;;;5029526;28;20328;-72
2023/10/03 06:47:07;;;;;;;9.23;5.25;;;22.60;99.90;;;;;;5032499;28;20211;-72
2023/10/03 06:49:33;;;;;;;8.90;5.50;;;22.50;99.90;;;;;;5048342;28;20197;-72
2023/10/03 06:52:01;;;;;;;9.40;5.07;;;22.60;99.90;;;;;;5035786;28;20346;-73
2023/10/03 06:54:27;;;;;;;9.50;5.15;;;22.50;99.90;;;;;;5030016;28;20191;-72
2023/10/03 06:56:55;;;;;;;9.93;5.78;;;22.60;99.90;;;;;;5034139;28;20193;-71
2023/10/03 06:59:20;;;;;;;9.55;4.95;;;22.60;99.90;;;;;;5036131;28;20170;-72
2023/10/03 07:01:48;;;;;;;9.30;5.13;;;22.60;99.90;;;;;;5023087;28;20201;-72
2023/10/03 07:04:14;;;;;;;7.85;5.03;;;22.60;99.90;;;;;;5043895;28;20182;-73
2023/10/03 07:06:45;;;;;;;9.13;5.10;;;22.60;99.90;;;;;;5035177;28;20184;-73
2023/10/03 07:09:14;;;;;;;10.68;5.47;;;22.60;99.90;;;;;;5035576;28;20232;-72
2023/10/03 07:11:47;;;;;;;10.38;5.65;;;22.60;99.90;;;;;;5033814;28;20266;-72
2023/10/03 07:14:12;;;;;;;9.40;5.30;;;22.60;99.90;;;;;;5032048;28;20181;-72
2023/10/03 07:16:39;;;;;;;8.38;5.15;;;22.60;99.90;;;;;;5030539;28;20373;-72
2023/10/03 07:19:05;;;;;;;10.00;5.32;;;22.50;99.90;;;;;;5017700;28;20187;-73
2023/10/03 07:21:34;;;;;;;9.75;5.13;;;22.60;99.90;;;;;;5032990;28;20260;-72
2023/10/03 07:23:59;;;;;;;11.40;6.00;;;22.50;99.90;;;;;;5048486;28;20182;-72
2023/10/03 07:26:27;;;;;;;10.00;5.68;;;22.50;99.90;;;;;;5035426;28;20189;-72
2023/10/03 07:28:57;;;;;;;8.07;5.03;;;22.50;99.90;;;;;;5029865;28;20209;-71
2023/10/03 07:31:23;;;;;;;8.75;5.15;;;22.50;99.90;;;;;;5034279;28;20177;-72
2023/10/03 07:33:53;;;;;;;8.77;5.40;;;22.50;99.90;;;;;;5033262;28;20183;-72
2023/10/03 07:36:22;;;;;;;11.98;6.28;;;22.50;99.90;;;;;;5033502;28;20194;-72
2023/10/03 07:38:52;;;;;;;8.23;5.30;;;22.50;99.90;;;;;;5046471;28;20198;-73
2023/10/03 07:41:21;;;;;;;8.52;4.95;;;22.50;99.90;;;;;;5030827;28;20185;-73
2023/10/03 07:43:47;;;;;;;8.02;4.63;;;22.50;99.90;;;;;;5041409;28;20238;-70
2023/10/03 07:46:26;;;;;;;8.20;4.82;;;22.50;99.90;;;;;;5025507;28;20174;-72
2023/10/03 07:48:55;;;;;;;8.32;5.10;;;22.50;99.90;;;;;;5033083;28;20212;-72
2023/10/03 07:51:26;;;;;;;8.10;5.05;;;22.50;99.90;;;;;;5034501;28;20166;-72
2023/10/03 07:53:52;;;;;;;10.48;5.63;;;22.50;99.90;;;;;;5035016;28;20564;-71
2023/10/03 07:56:25;;;;;;;7.57;4.95;;;22.50;99.90;;;;;;5030978;28;20222;-72
2023/10/03 07:58:56;;;;;;;9.77;5.28;;;22.50;99.90;;;;;;5022432;28;20179;-71
2023/10/03 08:01:26;;;;;;;8.35;5.25;;;22.50;99.90;;;;;;5030721;28;20182;-72
2023/10/03 08:03:55;;;;;;;10.13;5.00;;;22.50;99.90;;;;;;5026451;28;20170;-71
2023/10/03 08:06:25;;;;;;;8.23;5.03;;;22.50;99.90;;;;;;5030384;28;20169;-73
2023/10/03 08:09:00;;;;;;;8.18;4.82;;;22.50;99.90;;;;;;5035222;28;20197;-73
2023/10/03 08:11:30;;;;;;;9.48;4.93;;;22.50;99.90;;;;;;5030783;28;20178;-72
2023/10/03 08:13:56;;;;;;;8.68;4.95;;;22.50;99.90;;;;;;5037930;28;20263;-73
2023/10/03 08:16:22;;;;;;;9.13;5.55;;;22.50;99.90;;;;;;5039465;28;20474;-73
2023/10/03 08:18:57;;;;;;;9.77;5.18;;;22.50;99.90;;;;;;5037118;28;20179;-74
2023/10/03 08:21:29;;;;;;;8.02;5.05;;;22.50;99.90;;;;;;5024395;28;20268;-73
2023/10/03 08:23:58;;;;;;;8.38;4.80;;;22.50;99.90;;;;;;5016199;28;20181;-73
2023/10/03 08:26:25;;;;;;;8.45;4.97;;;22.50;99.90;;;;;;5035302;28;20171;-71
2023/10/03 08:29:04;;;;;;;8.93;4.93;;;22.50;99.90;;;;;;5034525;28;20185;-70
2023/10/03 08:31:33;;;;;;;8.73;4.72;;;22.50;99.90;;;;;;5034830;28;20317;-72
2023/10/03 08:34:01;;;;;;;8.68;4.80;;;22.50;99.90;;;;;;5033883;28;20230;-72
2023/10/03 08:36:31;;;;;;;6.30;4.05;;;22.50;99.90;;;;;;5034678;28;20170;-71
2023/10/03 08:39:04;;;;;;;6.88;4.20;;;22.50;99.90;;;;;;5033504;28;20201;-72
2023/10/03 08:42:12;;;;;;;6.07;3.85;;;22.50;99.90;;;;;;5034138;28;20182;-69
2023/10/03 08:44:51;;;;;;;7.03;3.90;;;22.50;99.90;;;;;;5034115;28;20220;-72
2023/10/03 08:47:30;;;;;;;5.97;3.67;;;22.60;99.90;;;;;;5032807;28;20174;-72
2023/10/03 08:50:11;;;;;;;6.22;4.05;;;22.60;99.90;;;;;;5034269;28;20185;-72
2023/10/03 08:52:48;;;;;;;4.80;2.90;;;22.70;99.90;;;;;;5051193;28;20232;-72
2023/10/03 08:55:19;;;;;;;6.32;3.25;;;22.80;99.90;;;;;;5033982;28;20235;-71
2023/10/03 08:57:48;;;;;;;6.40;3.28;;;22.90;99.90;;;;;;5034773;28;20213;-71
2023/10/03 09:00:15;;;;;;;5.90;3.42;;;22.90;99.90;;;;;;5025579;28;20178;-73
2023/10/03 09:02:47;;;;;;;6.88;3.20;;;23.00;99.90;;;;;;5037713;28;20181;-71
2023/10/03 09:05:24;;;;;;;5.85;3.10;;;23.00;99.90;;;;;;5038530;28;20190;-72
2023/10/03 09:07:51;;;;;;;4.63;3.10;;;23.00;99.90;;;;;;5038284;28;20227;-81
2023/10/03 09:10:26;;;;;;;5.10;3.00;;;22.90;99.90;;;;;;5025810;28;20240;-82
2023/10/03 09:12:56;;;;;;;6.15;3.08;;;22.90;99.90;;;;;;5038618;28;20181;-81
2023/10/03 09:15:24;;;;;;;5.32;2.90;;;22.90;99.90;;;;;;5038507;28;20182;-81
2023/10/03 09:17:51;;;;;;;6.65;3.17;;;22.90;99.90;;;;;;5055083;28;20259;-76
2023/10/03 09:20:21;;;;;;;3.78;2.30;;;22.80;99.90;;;;;;5034967;28;20179;-84
2023/10/03 09:22:47;;;;;;;4.43;2.75;;;22.80;99.90;;;;;;5017894;28;20249;-85
2023/10/03 09:25:12;;;;;;;5.22;2.85;;;22.80;99.90;;;;;;5036149;28;20174;-73
2023/10/03 09:27:39;;;;;;;5.25;3.22;;;22.80;99.90;;;;;;5038165;28;20197;-75
2023/10/03 09:30:22;;;;;;;4.78;3.05;;;22.70;99.90;;;;;;5037951;28;20184;-71
2023/10/03 09:32:53;;;;;;;6.43;3.72;;;22.70;99.90;;;;;;5034460;28;20177;-72
2023/10/03 09:35:19;;;;;;;8.52;4.32;;;22.70;99.90;;;;;;5035995;28;20202;-71
2023/10/03 09:37:48;;;;;;;7.93;3.95;;;22.80;99.90;;;;;;5141413;22;20229;-71
2023/10/03 09:40:17;;;;;;;6.38;3.67;;;22.80;99.90;;;;;;5015874;28;20167;-70
2023/10/03 09:42:50;;;;;;;6.93;4.22;;;22.80;99.90;;;;;;5015947;28;20175;-72
2023/10/03 09:45:18;;;;;;;7.72;4.53;;;22.80;99.90;;;;;;5014820;28;20263;-72
2023/10/03 09:47:52;;;;;;;5.43;3.67;;;22.80;99.90;;;;;;5014323;28;20202;-72
2023/10/03 09:50:18;;;;;;;7.28;3.63;;;22.80;99.90;;;;;;4998666;28;20186;-72
2023/10/03 09:52:44;;;;;;;5.90;3.53;;;22.80;99.90;;;;;;5014336;28;20186;-72
2023/10/03 09:55:26;;;;;;;6.05;3.60;;;22.80;99.90;;;;;;5000084;28;20203;-73
2023/10/03 09:57:54;;;;;;;5.47;3.40;;;22.80;99.90;;;;;;5014142;28;20202;-70
2023/10/03 10:00:41;;;;;;;5.95;3.70;;;22.80;99.90;;;;;;5013414;28;20202;-70
2023/10/03 10:03:14;;;;;;;5.68;3.67;;;22.80;99.90;;;;;;5009022;28;20286;-73
2023/10/03 10:05:59;;;;;;;6.53;3.90;;;22.80;99.90;;;;;;5016172;28;20191;-72
2023/10/03 10:08:32;;;;;;;7.90;4.10;;;22.80;99.90;;;;;;5004571;28;20431;-71
2023/10/03 10:11:07;;;;;;;5.88;3.85;;;22.80;99.90;;;;;;5002684;28;20178;-74
2023/10/03 10:13:37;;;;;;;8.30;3.78;;;22.80;99.90;;;;;;5016554;28;20214;-77
2023/10/03 10:16:20;;;;;;;6.13;3.53;;;22.80;99.90;;;;;;5013638;28;20175;-77
2023/10/03 10:18:46;;;;;;;6.10;3.60;;;22.70;99.90;;;;;;4999464;28;20266;-74
2023/10/03 10:21:30;;;;;;;5.55;3.38;;;22.70;99.90;;;;;;5013254;28;20258;-76
2023/10/03 10:24:14;;;;;;;6.20;3.80;;;22.80;99.90;;;;;;5014266;28;20168;-85
2023/10/03 10:26:42;;;;;;;5.18;3.13;;;22.80;99.90;;;;;;4997125;28;20199;-72
2023/10/03 10:29:14;;;;;;;6.03;3.50;;;22.80;99.90;;;;;;5009365;28;20207;-71
2023/10/03 10:31:49;;;;;;;4.53;2.83;;;22.80;99.90;;;;;;5015999;28;20221;-75
2023/10/03 10:34:21;;;;;;;4.85;3.28;;;22.80;99.90;;;;;;5016719;28;20193;-73
2023/10/03 10:37:01;;;;;;;5.07;3.08;;;22.80;99.90;;;;;;5015970;28;20209;-72
2023/10/03 10:43:16;;;;;;;3.75;2.90;;;22.80;99.90;;;;;;5003602;28;20206;-76
2023/10/03 10:45:44;;;;;;;4.22;2.97;;;22.80;99.90;;;;;;4960300;28;20254;-73
2023/10/03 10:48:11;;;;;;;4.03;2.80;;;22.80;99.90;;;;;;5005965;28;20201;-75
2023/10/03 10:51:02;;;;;;;4.65;2.75;;;22.70;99.90;;;;;;5015792;28;20284;-74
2023/10/03 10:53:37;;;;;;;4.22;2.80;;;22.70;99.90;;;;;;5009249;28;20250;-69
2023/10/03 10:56:09;;;;;;;4.75;2.90;;;22.70;99.90;;;;;;5011677;28;20183;-72
2023/10/03 10:58:53;;;;;;;6.18;2.63;;;22.60;99.90;;;;;;5005672;28;20298;-75
2023/10/03 11:01:20;;;;;;;3.92;3.00;;;22.60;99.90;;;;;;4997381;28;20270;-72
2023/10/03 11:03:47;;;;;;;3.80;2.92;;;22.60;99.90;;;;;;4997440;28;20175;-75
2023/10/03 11:06:19;;;;;;;4.70;3.00;;;22.60;99.90;;;;;;5004273;28;20209;-76
2023/10/03 11:08:45;;;;;;;4.10;2.58;;;22.60;99.90;;;;;;5015976;28;20171;-75
2023/10/03 11:11:11;;;;;;;3.85;2.58;;;22.50;99.90;;;;;;5016069;28;20450;-74
2023/10/03 11:14:05;;;;;;;4.05;2.90;;;22.50;99.90;;;;;;5024419;28;20180;-73
2023/10/03 11:16:31;;;;;;;5.10;3.10;;;22.50;99.90;;;;;;5011709;28;20183;-72
2023/10/03 11:18:59;;;;;;;3.50;2.67;;;22.50;99.90;;;;;;5015867;28;20195;-71
2023/10/03 11:21:30;;;;;;;3.55;2.35;;;22.30;99.90;;;;;;5006255;28;20174;-72
2023/10/03 11:24:18;;;;;;;2.67;1.95;;;22.30;99.90;;;;;;5013841;28;20183;-75
2023/10/03 11:26:54;;;;;;;2.30;1.90;;;22.20;99.90;;;;;;4996935;28;20261;-75
2023/10/03 11:29:46;;;;;;;2.75;2.00;;;22.10;99.90;;;;;;5003837;28;20202;-75
2023/10/03 11:32:24;;;;;;;2.85;2.03;;;22.10;99.90;;;;;;5003645;28;20203;-86
2023/10/03 11:34:57;;;;;;;2.67;1.92;;;22.00;99.90;;;;;;5008705;28;20186;-82
2023/10/03 11:37:39;;;;;;;3.08;2.00;;;21.90;99.90;;;;;;5003228;28;20210;-76
2023/10/03 11:40:10;;;;;;;2.78;1.67;;;21.80;99.90;;;;;;5015821;28;20187;-76
2023/10/03 11:42:56;;;;;;;3.75;1.85;;;21.70;99.90;;;;;;5015687;28;20269;-77
2023/10/03 11:45:24;;;;;;;2.38;2.00;;;21.60;99.90;;;;;;5014907;28;20202;-73
2023/10/03 11:48:07;;;;;;;3.90;2.10;;;21.50;99.90;;;;;;5013732;28;20182;-75
2023/10/03 11:50:36;;;;;;;2.42;1.75;;;21.40;99.90;;;;;;5003544;28;20188;-76
2023/10/03 11:53:08;;;;;;;2.88;1.98;;;21.20;99.90;;;;;;5004421;28;20184;-74
2023/10/03 11:55:36;;;;;;;3.83;2.58;;;21.10;99.90;;;;;;5006096;28;20242;-86
2023/10/03 11:58:05;;;;;;;4.40;2.17;;;20.90;99.90;;;;;;5004150;28;20306;-75
2023/10/03 12:00:31;;;;;;;4.00;1.80;;;20.70;99.90;;;;;;5011228;28;20184;-84
2023/10/03 12:02:59;;;;;;;3.67;1.70;;;20.50;99.90;;;;;;5014076;28;20269;-86
2023/10/03 12:05:27;;;;;;;2.45;1.73;;;20.10;99.90;;;;;;5015368;28;20174;-84
2023/10/03 12:07:56;;;;;;;3.90;1.67;;;19.70;99.90;;;;;;5014379;28;20201;-85
2023/10/03 12:10:25;;;;;;;2.33;1.40;;;19.40;99.90;;;;;;5010810;28;20356;-84
2023/10/03 12:12:51;;;;;;;2.50;1.40;;;19.00;99.90;;;;;;5004404;28;20187;-82
2023/10/03 12:15:18;;;;;;;2.50;1.55;;;18.80;99.90;;;;;;5015356;28;20289;-82
2023/10/03 12:17:47;;;;;;;4.93;1.77;;;18.60;99.90;;;;;;5014866;28;20289;-77
2023/10/03 12:20:19;;;;;;;2.88;1.67;;;18.40;99.90;;;;;;5014819;28;20178;-78
2023/10/03 12:22:46;;;;;;;2.72;1.60;;;18.30;99.90;;;;;;5008572;28;20269;-76
2023/10/03 12:25:14;;;;;;;2.95;1.75;;;18.10;99.90;;;;;;5009614;28;20183;-75
2023/10/03 12:27:41;;;;;;;3.65;1.70;;;18.00;99.90;;;;;;4998553;28;20274;-78
2023/10/03 12:30:11;;;;;;;3.08;1.75;;;18.00;99.90;;;;;;5014928;28;20281;-82
2023/10/03 12:32:44;;;;;;;2.92;1.63;;;18.00;99.90;;;;;;5013295;28;20186;-77
2023/10/03 12:35:11;;;;;;;2.75;1.92;;;17.90;99.90;;;;;;5017965;28;20178;-67
2023/10/03 12:37:41;;;;;;;5.85;1.92;;;18.00;99.90;;;;;;5015157;28;20226;-81
2023/10/03 12:40:16;;;;;;;4.47;2.00;;;17.90;99.90;;;;;;5019498;28;20174;-79
2023/10/03 12:42:51;;;;;;;5.47;2.10;;;18.00;99.90;;;;;;5018412;28;20224;-82
2023/10/03 12:45:20;;;;;;;3.95;2.17;;;18.00;99.90;;;;;;5019094;28;20236;-79
2023/10/03 12:47:53;;;;;;;2.63;1.65;;;18.00;99.90;;;;;;5015766;28;20277;-78
2023/10/03 12:50:21;;;;;;;3.28;2.03;;;18.00;99.90;;;;;;5019024;28;20195;-80
2023/10/03 12:53:01;;;;;;;2.88;1.95;;;17.90;99.90;;;;;;5018073;28;20217;-77
2023/10/03 12:55:33;;;;;;;5.63;1.90;;;18.00;99.90;;;;;;5025234;28;20197;-75
2023/10/03 12:57:59;;;;;;;2.83;1.90;;;17.90;99.90;;;;;;5038715;28;20204;-78
2023/10/03 13:00:28;;;;;;;4.57;2.03;;;17.90;99.90;;;;;;5033796;28;20246;-76
2023/10/03 13:02:56;;;;;;;5.28;2.08;;;17.80;99.90;;;;;;5018934;28;20175;-76
2023/10/03 13:05:24;;;;;;;2.95;1.70;;;17.80;99.90;;;;;;5003376;28;20182;-75